createdAt,value
2019-05-18T00:03:19.718Z,100314.21
2019-05-18T00:08:43.289Z,100314.21
2019-05-18T00:14:06.609Z,100305.59
2019-05-18T00:19:29.849Z,100308.51
2019-05-18T00:24:52.984Z,100308.47
2019-05-18T00:30:16.765Z,100304.34
2019-05-18T00:35:39.991Z,100315.63
2019-05-18T00:41:03.210Z,100308.27
2019-05-18T00:46:26.397Z,100309.13
2019-05-18T00:51:50.126Z,100303.27
2019-05-18T00:57:13.304Z,100303.45
2019-05-18T01:02:36.579Z,100305.58
2019-05-18T01:08:00.165Z,100301.92
2019-05-18T01:13:22.867Z,100307.19
2019-05-18T01:18:45.641Z,100301.70
2019-05-18T01:24:09.114Z,100304.64
2019-05-18T01:29:32.220Z,100297.41
2019-05-18T01:34:55.401Z,100295.34
2019-05-18T01:40:19.086Z,100300.97
2019-05-18T01:45:42.407Z,100301.75
2019-05-18T01:51:19.338Z,100308.08
2019-05-18T01:56:43.127Z,100312.45
2019-05-18T02:02:05.792Z,100303.00
2019-05-18T02:07:29.035Z,100301.55
2019-05-18T02:12:52.622Z,100302.23
2019-05-18T02:18:28.222Z,100307.50
2019-05-18T02:23:40.169Z,100303.01
2019-05-18T02:29:03.387Z,100304.84
2019-05-18T02:34:26.873Z,100306.49
2019-05-18T02:39:51.789Z,100312.02
2019-05-18T02:45:14.550Z,100303.77
2019-05-18T02:50:37.918Z,100293.14
2019-05-18T02:56:00.985Z,100286.81
2019-05-18T03:01:23.833Z,100289.02
2019-05-18T03:06:46.834Z,100288.48
2019-05-18T03:12:10.285Z,100295.95
2019-05-18T03:17:33.483Z,100288.13
2019-05-18T03:22:57.307Z,100291.16
2019-05-18T03:28:20.561Z,100296.73
2019-05-18T03:33:43.791Z,100296.73
2019-05-18T03:39:07.444Z,100295.59
2019-05-18T03:44:31.222Z,100299.02
2019-05-18T03:49:54.597Z,100291.09
2019-05-18T03:55:17.396Z,100299.94
2019-05-18T04:00:40.224Z,100301.85
2019-05-18T04:06:03.431Z,100299.71
2019-05-18T04:11:27.046Z,100292.69
2019-05-18T04:16:50.406Z,100285.50
2019-05-18T04:22:13.422Z,100285.97
2019-05-18T04:27:36.180Z,100286.28
2019-05-18T04:32:59.642Z,100285.22
2019-05-18T04:38:23.086Z,100286.36
2019-05-18T04:43:46.520Z,100285.59
2019-05-18T04:49:09.987Z,100285.96
2019-05-18T04:54:33.513Z,100285.89
2019-05-18T04:59:56.725Z,100287.58
2019-05-18T05:05:20.092Z,100284.37
2019-05-18T05:10:43.516Z,100284.97
2019-05-18T05:16:06.778Z,100281.68
2019-05-18T05:21:30.926Z,100279.42
2019-05-18T05:26:54.382Z,100278.86
2019-05-18T05:32:17.961Z,100276.19
2019-05-18T05:37:41.175Z,100276.92
2019-05-18T05:43:03.945Z,100281.55
2019-05-18T05:48:27.726Z,100286.97
2019-05-18T05:53:50.667Z,100290.77
2019-05-18T05:59:14.088Z,100298.27
2019-05-18T06:04:37.296Z,100298.23
2019-05-18T06:10:00.853Z,100299.30
2019-05-18T06:15:23.585Z,100301.78
2019-05-18T06:20:51.498Z,100304.39
2019-05-18T06:26:11.592Z,100308.03
2019-05-18T06:31:35.224Z,100305.56
2019-05-18T06:36:58.593Z,100302.61
2019-05-18T06:42:22.484Z,100304.27
2019-05-18T06:47:48.254Z,100297.15
2019-05-18T06:53:09.516Z,100293.12
2019-05-18T06:58:34.169Z,100289.05
2019-05-18T07:03:57.088Z,100285.58
2019-05-18T07:09:20.291Z,100287.94
2019-05-18T07:14:43.118Z,100295.31
2019-05-18T07:20:06.710Z,100295.28
2019-05-18T07:25:29.556Z,100288.56
2019-05-18T07:30:52.772Z,100283.11
2019-05-18T07:36:16.632Z,100279.04
2019-05-18T07:41:46.843Z,100277.98
2019-05-18T07:47:04.438Z,100278.86
2019-05-18T07:52:28.657Z,100268.62
2019-05-18T07:57:52.585Z,100263.66
2019-05-18T08:03:17.406Z,100260.91
2019-05-18T08:08:40.063Z,100248.20
2019-05-18T08:14:03.092Z,100249.72
2019-05-18T08:19:26.891Z,100249.77
2019-05-18T08:24:50.190Z,100242.73
2019-05-18T08:30:13.549Z,100254.18
2019-05-18T08:35:36.726Z,100247.10
2019-05-18T08:40:59.351Z,100234.46
2019-05-18T08:46:22.777Z,100225.09
2019-05-18T08:51:46.232Z,100218.71
2019-05-18T08:57:09.855Z,100208.31
2019-05-18T09:02:32.636Z,100211.44
2019-05-18T09:07:56.614Z,100206.16
2019-05-18T09:13:19.633Z,100193.98
2019-05-18T09:18:43.151Z,100190.67
2019-05-18T09:24:06.473Z,100189.84
2019-05-18T09:29:29.773Z,100180.13
2019-05-18T09:34:53.131Z,100170.11
2019-05-18T09:40:16.920Z,100170.63
2019-05-18T09:45:40.467Z,100173.59
2019-05-18T09:51:03.988Z,100163.77
2019-05-18T09:56:27.033Z,100163.45
2019-05-18T10:01:50.393Z,100160.84
2019-05-18T10:07:13.696Z,100151.69
2019-05-18T10:12:37.324Z,100148.33
2019-05-18T10:18:00.666Z,100140.26
2019-05-18T10:23:32.081Z,100138.69
2019-05-18T10:28:55.631Z,100145.87
2019-05-18T10:34:18.569Z,100143.62
2019-05-18T10:39:41.911Z,100129.54
2019-05-18T10:56:22.124Z,100110.69
2019-05-18T11:01:45.659Z,100096.25
2019-05-18T11:07:08.977Z,100087.13
2019-05-18T11:12:36.411Z,100080.38
2019-05-18T11:17:59.453Z,100079.97
2019-05-18T11:23:22.865Z,100081.36
2019-05-18T11:28:46.543Z,100077.84
2019-05-18T11:34:10.219Z,100069.75
2019-05-18T11:39:33.355Z,100072.31
2019-05-18T11:44:56.836Z,100079.53
2019-05-18T11:50:20.356Z,100082.83
2019-05-18T11:55:43.601Z,100070.05
2019-05-18T12:01:07.106Z,100070.57
2019-05-18T12:06:30.300Z,100065.67
2019-05-18T12:11:53.242Z,100064.97
2019-05-18T12:17:16.661Z,100059.28
2019-05-18T12:22:40.263Z,100051.24
2019-05-18T12:28:03.865Z,100052.70
2019-05-18T12:33:27.164Z,100049.48
2019-05-18T12:38:50.915Z,100043.20
2019-05-18T12:44:14.338Z,100050.80
2019-05-18T12:49:38.044Z,100036.48
2019-05-18T12:55:07.611Z,100046.43
2019-05-18T13:00:31.596Z,100032.42
2019-05-18T13:05:54.733Z,100035.98
2019-05-18T13:11:18.323Z,100024.28
2019-05-18T13:16:41.643Z,100027.49
2019-05-18T13:22:05.181Z,100023.80
2019-05-18T13:27:38.750Z,100028.06
2019-05-18T13:32:52.794Z,100024.52
2019-05-18T13:38:16.131Z,100012.66
2019-05-18T13:43:39.312Z,100000.67
2019-05-18T13:49:02.307Z,100000.22
2019-05-18T13:54:25.797Z,99991.73
2019-05-18T13:59:49.363Z,99988.97
2019-05-18T14:05:14.072Z,99988.08
2019-05-18T14:10:37.186Z,99979.00
2019-05-18T14:16:00.164Z,99984.13
2019-05-18T14:21:23.676Z,99979.83
2019-05-18T14:26:46.536Z,99982.22
2019-05-18T14:32:11.021Z,99984.79
2019-05-18T14:37:34.469Z,99977.83
2019-05-18T14:42:57.599Z,99976.27
2019-05-18T14:48:21.088Z,99975.68
2019-05-18T14:53:44.697Z,99965.05
2019-05-18T14:59:08.057Z,99970.58
2019-05-18T15:04:30.790Z,99975.02
2019-05-18T15:09:53.991Z,99976.05
2019-05-18T15:15:17.741Z,99980.63
2019-05-18T15:20:40.638Z,99974.90
2019-05-18T15:26:03.943Z,99978.73
2019-05-18T15:31:27.609Z,99968.06
2019-05-18T15:36:51.390Z,99969.84
2019-05-18T15:42:14.436Z,99976.47
2019-05-18T15:47:37.997Z,99966.45
2019-05-18T15:53:00.510Z,99970.44
2019-05-18T15:58:24.128Z,99960.96
2019-05-18T16:03:47.971Z,99962.86
2019-05-18T16:09:11.342Z,99966.83
2019-05-18T16:14:34.318Z,99959.98
2019-05-18T16:19:58.019Z,99953.88
2019-05-18T16:25:21.484Z,99957.64
2019-05-18T16:30:44.439Z,99955.47
2019-05-18T16:36:07.494Z,99952.34
2019-05-18T16:41:30.332Z,99959.80
2019-05-18T16:46:53.856Z,99962.42
2019-05-18T16:52:16.863Z,99961.25
2019-05-18T16:57:40.171Z,99961.45
2019-05-18T17:03:03.592Z,99961.26
2019-05-18T17:08:26.432Z,99957.70
2019-05-18T17:13:49.225Z,99961.05
2019-05-18T17:19:12.601Z,99962.53
2019-05-18T17:24:36.313Z,99959.60
2019-05-18T17:29:59.517Z,99967.77
2019-05-18T17:35:23.103Z,99966.95
2019-05-18T17:40:46.624Z,99960.90
2019-05-18T17:46:09.821Z,99967.25
2019-05-18T17:51:33.152Z,99967.33
2019-05-18T17:57:08.004Z,99967.13
2019-05-18T18:02:21.388Z,99973.98
2019-05-18T18:07:45.165Z,99978.29
2019-05-18T18:13:09.627Z,99968.48
2019-05-18T18:18:34.868Z,99974.62
2019-05-18T18:23:57.331Z,99976.56
2019-05-18T18:29:21.137Z,99979.25
2019-05-18T18:34:43.872Z,99978.20
2019-05-18T18:40:07.436Z,99980.86
2019-05-18T18:45:30.901Z,99983.39
2019-05-18T18:50:54.479Z,99986.13
2019-05-18T18:56:17.863Z,99983.48
2019-05-18T19:01:41.034Z,99990.19
2019-05-18T19:07:04.356Z,100004.97
2019-05-18T19:12:27.851Z,100003.59
2019-05-18T19:17:51.053Z,100026.33
2019-05-18T19:23:14.757Z,100024.81
2019-05-18T19:28:38.049Z,100035.52
2019-05-18T19:34:01.753Z,100040.92
2019-05-18T19:39:25.008Z,100052.33
2019-05-18T19:44:48.233Z,100050.73
2019-05-18T19:50:12.043Z,100053.54
2019-05-18T19:55:35.061Z,100053.28
2019-05-18T20:00:58.643Z,100061.91
2019-05-18T20:06:22.178Z,100066.93
2019-05-18T20:11:45.362Z,100065.00
2019-05-18T20:17:09.095Z,100069.45
2019-05-18T20:22:32.167Z,100065.86
2019-05-18T20:27:55.707Z,100072.23
2019-05-18T20:33:19.550Z,100073.06
2019-05-18T20:38:42.857Z,100069.48
2019-05-18T20:44:06.358Z,100069.25
2019-05-18T20:49:29.404Z,100075.95
2019-05-18T20:54:52.757Z,100064.01
2019-05-18T21:00:16.547Z,100065.70
2019-05-18T21:05:39.981Z,100067.08
2019-05-18T21:11:03.539Z,100061.02
2019-05-18T21:16:27.159Z,100066.84
2019-05-18T21:21:50.417Z,100061.56
2019-05-18T21:27:13.535Z,100063.81
2019-05-18T21:32:36.865Z,100057.42
2019-05-18T21:37:59.615Z,100047.44
2019-05-18T21:43:22.428Z,100046.33
2019-05-18T21:48:45.991Z,100051.58
2019-05-18T21:54:09.873Z,100044.60
2019-05-18T21:59:33.172Z,100033.23
2019-05-18T22:04:56.652Z,100036.81
2019-05-18T22:10:25.766Z,100035.71
2019-05-18T22:15:45.425Z,100039.30
2019-05-18T22:21:09.346Z,100052.03
2019-05-18T22:26:32.679Z,100053.45
2019-05-18T22:31:56.802Z,100049.78
2019-05-18T22:37:19.656Z,100059.75
2019-05-18T22:42:43.164Z,100055.00
2019-05-18T22:48:05.918Z,100055.00
2019-05-18T22:53:29.458Z,100054.41
2019-05-18T22:58:52.784Z,100047.71
2019-05-18T23:04:16.228Z,100048.52
2019-05-18T23:09:39.535Z,100057.40
2019-05-18T23:15:03.157Z,100047.17
2019-05-18T23:20:26.218Z,100045.20
2019-05-18T23:25:49.757Z,100045.19
2019-05-18T23:31:13.355Z,100042.01
2019-05-18T23:36:37.007Z,100038.69
2019-05-18T23:42:00.634Z,100026.48
2019-05-18T23:47:23.526Z,100025.38
2019-05-18T23:52:46.766Z,100028.08
2019-05-18T23:58:10.307Z,100022.56
